sensor_id;sensor_type;location;lat;lon;timestamp;P1;durP1;ratioP1;P2;durP2;ratioP2
22064;SDS011;11197;53.110;8.468;2024-01-06T00:01:54;7.82;;;5.65;;
22064;SDS011;11197;53.110;8.468;2024-01-06T00:04:19;8.93;;;6.07;;
22064;SDS011;11197;53.110;8.468;2024-01-06T00:06:45;9.65;;;6.15;;
22064;SDS011;11197;53.110;8.468;2024-01-06T00:09:11;8.15;;;5.38;;
22064;SDS011;11197;53.110;8.468;2024-01-06T00:11:37;8.60;;;5.95;;
22064;SDS011;11197;53.110;8.468;2024-01-06T00:14:03;8.52;;;6.10;;
22064;SDS011;11197;53.110;8.468;2024-01-06T00:16:29;8.43;;;5.63;;
22064;SDS011;11197;53.110;8.468;2024-01-06T00:18:55;7.88;;;5.50;;
22064;SDS011;11197;53.110;8.468;2024-01-06T00:21:22;9.23;;;5.43;;
22064;SDS011;11197;53.110;8.468;2024-01-06T00:24:03;8.15;;;5.30;;
22064;SDS011;11197;53.110;8.468;2024-01-06T00:26:34;8.07;;;5.53;;
22064;SDS011;11197;53.110;8.468;2024-01-06T00:29:01;8.02;;;5.63;;
22064;SDS011;11197;53.110;8.468;2024-01-06T00:31:26;8.27;;;5.75;;
22064;SDS011;11197;53.110;8.468;2024-01-06T00:33:52;7.70;;;5.22;;
22064;SDS011;11197;53.110;8.468;2024-01-06T00:36:18;7.15;;;5.43;;
22064;SDS011;11197;53.110;8.468;2024-01-06T00:38:44;6.97;;;5.15;;
22064;SDS011;11197;53.110;8.468;2024-01-06T00:41:10;8.77;;;5.50;;
22064;SDS011;11197;53.110;8.468;2024-01-06T00:43:36;6.85;;;5.20;;
22064;SDS011;11197;53.110;8.468;2024-01-06T00:46:02;7.18;;;5.22;;
22064;SDS011;11197;53.110;8.468;2024-01-06T00:48:28;7.97;;;5.28;;
22064;SDS011;11197;53.110;8.468;2024-01-06T00:50:54;9.82;;;5.68;;
22064;SDS011;11197;53.110;8.468;2024-01-06T00:53:21;8.10;;;5.22;;
22064;SDS011;11197;53.110;8.468;2024-01-06T00:55:47;6.90;;;5.00;;
22064;SDS011;11197;53.110;8.468;2024-01-06T00:58:13;7.75;;;5.03;;
22064;SDS011;11197;53.110;8.468;2024-01-06T01:00:39;7.35;;;4.95;;
22064;SDS011;11197;53.110;8.468;2024-01-06T01:03:05;8.57;;;5.40;;
22064;SDS011;11197;53.110;8.468;2024-01-06T01:05:31;8.30;;;5.70;;
22064;SDS011;11197;53.110;8.468;2024-01-06T01:07:57;7.20;;;5.07;;
22064;SDS011;11197;53.110;8.468;2024-01-06T01:10:23;7.60;;;5.20;;
22064;SDS011;11197;53.110;8.468;2024-01-06T01:12:48;7.63;;;5.18;;
22064;SDS011;11197;53.110;8.468;2024-01-06T01:15:14;8.25;;;5.05;;
22064;SDS011;11197;53.110;8.468;2024-01-06T01:17:40;7.68;;;5.30;;
22064;SDS011;11197;53.110;8.468;2024-01-06T01:20:06;7.00;;;4.65;;
22064;SDS011;11197;53.110;8.468;2024-01-06T01:22:34;7.50;;;5.10;;
22064;SDS011;11197;53.110;8.468;2024-01-06T01:25:01;7.53;;;5.30;;
22064;SDS011;11197;53.110;8.468;2024-01-06T01:27:30;6.65;;;4.90;;
22064;SDS011;11197;53.110;8.468;2024-01-06T01:29:56;7.30;;;5.03;;
22064;SDS011;11197;53.110;8.468;2024-01-06T01:32:22;7.20;;;5.40;;
22064;SDS011;11197;53.110;8.468;2024-01-06T01:34:48;6.65;;;4.88;;
22064;SDS011;11197;53.110;8.468;2024-01-06T01:37:14;7.35;;;5.20;;
22064;SDS011;11197;53.110;8.468;2024-01-06T01:39:40;7.03;;;4.95;;
22064;SDS011;11197;53.110;8.468;2024-01-06T01:42:06;7.45;;;5.13;;
22064;SDS011;11197;53.110;8.468;2024-01-06T01:44:32;7.10;;;4.93;;
22064;SDS011;11197;53.110;8.468;2024-01-06T01:46:58;6.72;;;4.95;;
22064;SDS011;11197;53.110;8.468;2024-01-06T01:49:24;7.32;;;5.15;;
22064;SDS011;11197;53.110;8.468;2024-01-06T01:51:51;7.30;;;5.30;;
22064;SDS011;11197;53.110;8.468;2024-01-06T01:54:18;6.90;;;4.97;;
22064;SDS011;11197;53.110;8.468;2024-01-06T01:56:44;6.78;;;5.10;;
22064;SDS011;11197;53.110;8.468;2024-01-06T01:59:13;7.03;;;5.03;;
22064;SDS011;11197;53.110;8.468;2024-01-06T02:01:42;6.78;;;4.70;;
22064;SDS011;11197;53.110;8.468;2024-01-06T02:04:09;8.50;;;4.68;;
22064;SDS011;11197;53.110;8.468;2024-01-06T02:06:35;7.88;;;4.90;;
22064;SDS011;11197;53.110;8.468;2024-01-06T02:09:01;8.10;;;5.10;;
22064;SDS011;11197;53.110;8.468;2024-01-06T02:11:27;7.47;;;4.72;;
22064;SDS011;11197;53.110;8.468;2024-01-06T02:13:53;7.05;;;5.10;;
22064;SDS011;11197;53.110;8.468;2024-01-06T02:16:19;6.70;;;4.75;;
22064;SDS011;11197;53.110;8.468;2024-01-06T02:18:45;7.68;;;5.22;;
22064;SDS011;11197;53.110;8.468;2024-01-06T02:21:11;8.15;;;5.40;;
22064;SDS011;11197;53.110;8.468;2024-01-06T02:23:38;6.63;;;4.80;;
22064;SDS011;11197;53.110;8.468;2024-01-06T02:26:05;7.45;;;4.95;;
22064;SDS011;11197;53.110;8.468;2024-01-06T02:28:31;7.13;;;4.78;;
22064;SDS011;11197;53.110;8.468;2024-01-06T02:30:57;6.93;;;4.97;;
22064;SDS011;11197;53.110;8.468;2024-01-06T02:33:23;7.78;;;5.60;;
22064;SDS011;11197;53.110;8.468;2024-01-06T02:35:49;7.28;;;5.25;;
22064;SDS011;11197;53.110;8.468;2024-01-06T02:38:15;7.22;;;5.40;;
22064;SDS011;11197;53.110;8.468;2024-01-06T02:40:41;7.55;;;5.20;;
22064;SDS011;11197;53.110;8.468;2024-01-06T02:43:08;7.63;;;5.30;;
22064;SDS011;11197;53.110;8.468;2024-01-06T02:45:34;7.35;;;4.95;;
22064;SDS011;11197;53.110;8.468;2024-01-06T02:48:00;6.85;;;5.13;;
22064;SDS011;11197;53.110;8.468;2024-01-06T02:50:26;6.90;;;4.78;;
22064;SDS011;11197;53.110;8.468;2024-01-06T02:52:52;8.10;;;5.30;;
22064;SDS011;11197;53.110;8.468;2024-01-06T02:55:18;6.80;;;4.75;;
22064;SDS011;11197;53.110;8.468;2024-01-06T02:57:44;6.97;;;4.70;;
22064;SDS011;11197;53.110;8.468;2024-01-06T03:00:10;6.65;;;4.78;;
22064;SDS011;11197;53.110;8.468;2024-01-06T03:02:38;7.00;;;4.75;;
22064;SDS011;11197;53.110;8.468;2024-01-06T03:05:07;6.90;;;4.68;;
22064;SDS011;11197;53.110;8.468;2024-01-06T03:07:34;6.88;;;4.70;;
22064;SDS011;11197;53.110;8.468;2024-01-06T03:09:59;6.97;;;4.70;;
22064;SDS011;11197;53.110;8.468;2024-01-06T03:12:25;7.10;;;4.90;;
22064;SDS011;11197;53.110;8.468;2024-01-06T03:14:51;7.28;;;5.10;;
22064;SDS011;11197;53.110;8.468;2024-01-06T03:17:18;7.00;;;5.03;;
22064;SDS011;11197;53.110;8.468;2024-01-06T03:19:44;7.22;;;5.03;;
22064;SDS011;11197;53.110;8.468;2024-01-06T03:22:10;6.68;;;4.80;;
22064;SDS011;11197;53.110;8.468;2024-01-06T03:24:35;7.85;;;5.35;;
22064;SDS011;11197;53.110;8.468;2024-01-06T03:27:02;6.90;;;5.10;;
22064;SDS011;11197;53.110;8.468;2024-01-06T03:29:28;7.28;;;5.15;;
22064;SDS011;11197;53.110;8.468;2024-01-06T03:31:54;6.93;;;5.10;;
22064;SDS011;11197;53.110;8.468;2024-01-06T03:34:20;7.22;;;5.40;;
22064;SDS011;11197;53.110;8.468;2024-01-06T03:36:45;7.00;;;5.20;;
22064;SDS011;11197;53.110;8.468;2024-01-06T03:39:11;7.05;;;5.13;;
22064;SDS011;11197;53.110;8.468;2024-01-06T03:41:39;7.75;;;5.53;;
22064;SDS011;11197;53.110;8.468;2024-01-06T03:44:05;7.28;;;5.10;;
22064;SDS011;11197;53.110;8.468;2024-01-06T03:46:31;8.18;;;5.05;;
22064;SDS011;11197;53.110;8.468;2024-01-06T03:49:00;8.57;;;5.15;;
22064;SDS011;11197;53.110;8.468;2024-01-06T03:51:26;8.55;;;5.57;;
22064;SDS011;11197;53.110;8.468;2024-01-06T03:53:52;7.30;;;5.40;;
22064;SDS011;11197;53.110;8.468;2024-01-06T03:56:18;6.93;;;5.25;;
22064;SDS011;11197;53.110;8.468;2024-01-06T03:58:44;8.07;;;5.57;;
22064;SDS011;11197;53.110;8.468;2024-01-06T04:01:10;7.70;;;5.70;;
22064;SDS011;11197;53.110;8.468;2024-01-06T04:03:35;8.23;;;5.65;;
22064;SDS011;11197;53.110;8.468;2024-01-06T04:06:02;7.05;;;5.32;;
22064;SDS011;11197;53.110;8.468;2024-01-06T04:08:28;7.15;;;5.30;;
22064;SDS011;11197;53.110;8.468;2024-01-06T04:10:54;7.15;;;5.07;;
22064;SDS011;11197;53.110;8.468;2024-01-06T04:13:20;7.63;;;5.20;;
22064;SDS011;11197;53.110;8.468;2024-01-06T04:15:46;7.30;;;5.45;;
22064;SDS011;11197;53.110;8.468;2024-01-06T04:18:12;8.20;;;5.65;;
22064;SDS011;11197;53.110;8.468;2024-01-06T04:20:38;8.80;;;5.60;;
22064;SDS011;11197;53.110;8.468;2024-01-06T04:23:04;7.53;;;5.28;;
22064;SDS011;11197;53.110;8.468;2024-01-06T04:25:29;8.95;;;5.95;;
22064;SDS011;11197;53.110;8.468;2024-01-06T04:27:55;7.65;;;5.60;;
22064;SDS011;11197;53.110;8.468;2024-01-06T04:30:21;8.00;;;5.60;;
22064;SDS011;11197;53.110;8.468;2024-01-06T04:32:47;7.43;;;5.18;;
22064;SDS011;11197;53.110;8.468;2024-01-06T04:35:13;8.63;;;5.95;;
22064;SDS011;11197;53.110;8.468;2024-01-06T04:37:39;7.43;;;5.50;;
22064;SDS011;11197;53.110;8.468;2024-01-06T04:40:05;8.20;;;5.28;;
22064;SDS011;11197;53.110;8.468;2024-01-06T04:42:33;8.18;;;5.65;;
22064;SDS011;11197;53.110;8.468;2024-01-06T04:44:59;8.15;;;5.65;;
22064;SDS011;11197;53.110;8.468;2024-01-06T04:47:24;7.68;;;5.35;;
22064;SDS011;11197;53.110;8.468;2024-01-06T04:49:52;7.93;;;5.60;;
22064;SDS011;11197;53.110;8.468;2024-01-06T04:52:18;7.78;;;5.45;;
22064;SDS011;11197;53.110;8.468;2024-01-06T04:54:43;7.90;;;5.30;;
22064;SDS011;11197;53.110;8.468;2024-01-06T04:57:09;6.93;;;5.28;;
22064;SDS011;11197;53.110;8.468;2024-01-06T04:59:35;7.95;;;5.43;;
22064;SDS011;11197;53.110;8.468;2024-01-06T05:02:01;8.27;;;5.80;;
22064;SDS011;11197;53.110;8.468;2024-01-06T05:04:27;8.70;;;5.78;;
22064;SDS011;11197;53.110;8.468;2024-01-06T05:06:56;7.97;;;5.00;;
22064;SDS011;11197;53.110;8.468;2024-01-06T05:09:21;7.20;;;5.10;;
22064;SDS011;11197;53.110;8.468;2024-01-06T05:11:47;8.70;;;5.35;;
22064;SDS011;11197;53.110;8.468;2024-01-06T05:14:13;7.95;;;5.43;;
22064;SDS011;11197;53.110;8.468;2024-01-06T05:16:39;8.00;;;5.00;;
22064;SDS011;11197;53.110;8.468;2024-01-06T05:19:05;8.63;;;5.55;;
22064;SDS011;11197;53.110;8.468;2024-01-06T05:21:31;7.07;;;4.82;;
22064;SDS011;11197;53.110;8.468;2024-01-06T05:23:57;7.15;;;5.20;;
22064;SDS011;11197;53.110;8.468;2024-01-06T05:26:24;7.57;;;5.47;;
22064;SDS011;11197;53.110;8.468;2024-01-06T05:28:50;9.45;;;5.95;;
22064;SDS011;11197;53.110;8.468;2024-01-06T05:31:16;7.13;;;5.13;;
22064;SDS011;11197;53.110;8.468;2024-01-06T05:33:42;7.57;;;5.55;;
22064;SDS011;11197;53.110;8.468;2024-01-06T05:36:08;7.78;;;5.50;;
22064;SDS011;11197;53.110;8.468;2024-01-06T05:38:36;8.32;;;5.70;;
22064;SDS011;11197;53.110;8.468;2024-01-06T05:41:02;9.75;;;5.60;;
22064;SDS011;11197;53.110;8.468;2024-01-06T05:43:28;7.68;;;5.68;;
22064;SDS011;11197;53.110;8.468;2024-01-06T05:45:54;8.27;;;5.43;;
22064;SDS011;11197;53.110;8.468;2024-01-06T05:48:20;8.10;;;5.45;;
22064;SDS011;11197;53.110;8.468;2024-01-06T05:50:46;8.93;;;5.72;;
22064;SDS011;11197;53.110;8.468;2024-01-06T05:53:12;8.55;;;5.60;;
22064;SDS011;11197;53.110;8.468;2024-01-06T05:55:39;8.70;;;6.07;;
22064;SDS011;11197;53.110;8.468;2024-01-06T05:58:05;9.00;;;6.18;;
22064;SDS011;11197;53.110;8.468;2024-01-06T06:00:31;7.68;;;5.80;;
22064;SDS011;11197;53.110;8.468;2024-01-06T06:02:58;9.70;;;6.78;;
22064;SDS011;11197;53.110;8.468;2024-01-06T06:05:23;9.77;;;6.97;;
22064;SDS011;11197;53.110;8.468;2024-01-06T06:07:49;8.52;;;6.18;;
22064;SDS011;11197;53.110;8.468;2024-01-06T06:10:15;9.00;;;6.30;;
22064;SDS011;11197;53.110;8.468;2024-01-06T06:12:44;9.48;;;6.78;;
22064;SDS011;11197;53.110;8.468;2024-01-06T06:15:10;9.05;;;6.18;;
22064;SDS011;11197;53.110;8.468;2024-01-06T06:17:36;8.90;;;6.45;;
22064;SDS011;11197;53.110;8.468;2024-01-06T06:20:02;9.68;;;7.00;;
22064;SDS011;11197;53.110;8.468;2024-01-06T06:22:28;9.65;;;6.47;;
22064;SDS011;11197;53.110;8.468;2024-01-06T06:24:57;10.13;;;7.28;;
22064;SDS011;11197;53.110;8.468;2024-01-06T06:27:24;9.05;;;6.70;;
22064;SDS011;11197;53.110;8.468;2024-01-06T06:29:52;9.18;;;6.93;;
22064;SDS011;11197;53.110;8.468;2024-01-06T06:32:18;9.20;;;6.90;;
22064;SDS011;11197;53.110;8.468;2024-01-06T06:34:45;10.32;;;7.35;;
22064;SDS011;11197;53.110;8.468;2024-01-06T06:37:11;9.63;;;7.35;;
22064;SDS011;11197;53.110;8.468;2024-01-06T06:39:37;10.60;;;7.65;;
22064;SDS011;11197;53.110;8.468;2024-01-06T06:42:03;9.20;;;6.97;;
22064;SDS011;11197;53.110;8.468;2024-01-06T06:44:29;10.05;;;7.20;;
22064;SDS011;11197;53.110;8.468;2024-01-06T06:46:55;11.48;;;7.68;;
22064;SDS011;11197;53.110;8.468;2024-01-06T06:49:22;10.88;;;7.63;;
22064;SDS011;11197;53.110;8.468;2024-01-06T06:51:48;9.60;;;7.07;;
22064;SDS011;11197;53.110;8.468;2024-01-06T06:54:15;11.07;;;7.65;;
22064;SDS011;11197;53.110;8.468;2024-01-06T06:56:44;11.55;;;7.95;;
22064;SDS011;11197;53.110;8.468;2024-01-06T06:59:10;11.20;;;8.07;;
22064;SDS011;11197;53.110;8.468;2024-01-06T07:01:36;10.93;;;7.90;;
22064;SDS011;11197;53.110;8.468;2024-01-06T07:04:03;11.77;;;8.23;;
22064;SDS011;11197;53.110;8.468;2024-01-06T07:06:29;11.65;;;7.68;;
22064;SDS011;11197;53.110;8.468;2024-01-06T07:08:56;11.27;;;7.97;;
22064;SDS011;11197;53.110;8.468;2024-01-06T07:11:22;10.43;;;8.07;;
22064;SDS011;11197;53.110;8.468;2024-01-06T07:13:49;10.90;;;7.75;;
22064;SDS011;11197;53.110;8.468;2024-01-06T07:16:15;11.30;;;8.05;;
22064;SDS011;11197;53.110;8.468;2024-01-06T07:18:41;12.57;;;8.60;;
22064;SDS011;11197;53.110;8.468;2024-01-06T07:21:07;11.68;;;8.38;;
22064;SDS011;11197;53.110;8.468;2024-01-06T07:23:33;11.13;;;7.80;;
22064;SDS011;11197;53.110;8.468;2024-01-06T07:25:59;11.27;;;7.88;;
22064;SDS011;11197;53.110;8.468;2024-01-06T07:28:26;10.95;;;7.70;;
22064;SDS011;11197;53.110;8.468;2024-01-06T07:30:52;11.60;;;8.05;;
22064;SDS011;11197;53.110;8.468;2024-01-06T07:33:18;11.30;;;8.10;;
22064;SDS011;11197;53.110;8.468;2024-01-06T07:35:44;10.35;;;7.93;;
22064;SDS011;11197;53.110;8.468;2024-01-06T07:38:11;11.18;;;7.65;;
22064;SDS011;11197;53.110;8.468;2024-01-06T07:40:37;11.27;;;7.80;;
22064;SDS011;11197;53.110;8.468;2024-01-06T07:43:04;11.82;;;8.45;;
22064;SDS011;11197;53.110;8.468;2024-01-06T07:45:33;11.38;;;8.30;;
22064;SDS011;11197;53.110;8.468;2024-01-06T07:47:59;10.23;;;7.63;;
22064;SDS011;11197;53.110;8.468;2024-01-06T07:50:25;11.68;;;8.13;;
22064;SDS011;11197;53.110;8.468;2024-01-06T07:52:52;11.57;;;8.23;;
22064;SDS011;11197;53.110;8.468;2024-01-06T07:55:18;12.65;;;8.77;;
22064;SDS011;11197;53.110;8.468;2024-01-06T07:57:44;12.63;;;8.80;;
22064;SDS011;11197;53.110;8.468;2024-01-06T08:00:10;12.07;;;8.35;;
22064;SDS011;11197;53.110;8.468;2024-01-06T08:02:42;12.68;;;8.43;;
22064;SDS011;11197;53.110;8.468;2024-01-06T08:05:08;12.50;;;8.70;;
22064;SDS011;11197;53.110;8.468;2024-01-06T08:07:35;12.15;;;8.73;;
22064;SDS011;11197;53.110;8.468;2024-01-06T08:10:01;12.25;;;9.05;;
22064;SDS011;11197;53.110;8.468;2024-01-06T08:12:30;12.90;;;8.77;;
22064;SDS011;11197;53.110;8.468;2024-01-06T08:14:56;12.80;;;9.10;;
22064;SDS011;11197;53.110;8.468;2024-01-06T08:17:22;13.05;;;9.60;;
22064;SDS011;11197;53.110;8.468;2024-01-06T08:19:48;12.93;;;9.10;;
22064;SDS011;11197;53.110;8.468;2024-01-06T08:22:14;12.40;;;8.88;;
22064;SDS011;11197;53.110;8.468;2024-01-06T08:24:40;11.77;;;8.90;;
22064;SDS011;11197;53.110;8.468;2024-01-06T08:27:06;13.30;;;9.23;;
22064;SDS011;11197;53.110;8.468;2024-01-06T08:29:32;13.13;;;9.20;;
22064;SDS011;11197;53.110;8.468;2024-01-06T08:31:58;12.38;;;8.85;;
22064;SDS011;11197;53.110;8.468;2024-01-06T08:34:23;14.85;;;9.27;;
22064;SDS011;11197;53.110;8.468;2024-01-06T08:36:49;13.00;;;8.55;;
22064;SDS011;11197;53.110;8.468;2024-01-06T08:39:16;12.80;;;8.90;;
22064;SDS011;11197;53.110;8.468;2024-01-06T08:41:42;13.15;;;9.25;;
22064;SDS011;11197;53.110;8.468;2024-01-06T08:44:08;13.15;;;9.13;;
22064;SDS011;11197;53.110;8.468;2024-01-06T08:46:34;13.75;;;9.68;;
22064;SDS011;11197;53.110;8.468;2024-01-06T08:49:00;13.52;;;9.70;;
22064;SDS011;11197;53.110;8.468;2024-01-06T08:51:26;13.48;;;9.65;;
22064;SDS011;11197;53.110;8.468;2024-01-06T08:53:52;15.00;;;10.20;;
22064;SDS011;11197;53.110;8.468;2024-01-06T08:56:18;14.82;;;10.25;;
22064;SDS011;11197;53.110;8.468;2024-01-06T08:58:44;17.77;;;11.00;;
22064;SDS011;11197;53.110;8.468;2024-01-06T09:01:10;14.43;;;10.38;;
22064;SDS011;11197;53.110;8.468;2024-01-06T09:03:36;14.82;;;10.40;;
22064;SDS011;11197;53.110;8.468;2024-01-06T09:06:02;15.40;;;10.88;;
22064;SDS011;11197;53.110;8.468;2024-01-06T09:08:29;15.57;;;10.80;;
22064;SDS011;11197;53.110;8.468;2024-01-06T09:10:55;16.25;;;11.02;;
22064;SDS011;11197;53.110;8.468;2024-01-06T09:13:22;15.77;;;11.00;;
22064;SDS011;11197;53.110;8.468;2024-01-06T09:15:49;18.40;;;11.68;;
22064;SDS011;11197;53.110;8.468;2024-01-06T09:18:18;16.83;;;10.82;;
22064;SDS011;11197;53.110;8.468;2024-01-06T09:20:44;13.73;;;8.93;;
22064;SDS011;11197;53.110;8.468;2024-01-06T09:23:13;17.55;;;11.82;;
22064;SDS011;11197;53.110;8.468;2024-01-06T09:25:39;14.85;;;10.57;;
22064;SDS011;11197;53.110;8.468;2024-01-06T09:28:05;13.27;;;9.73;;
22064;SDS011;11197;53.110;8.468;2024-01-06T09:30:31;14.75;;;10.50;;
22064;SDS011;11197;53.110;8.468;2024-01-06T09:32:57;14.05;;;10.23;;
22064;SDS011;11197;53.110;8.468;2024-01-06T09:35:23;15.20;;;10.98;;
22064;SDS011;11197;53.110;8.468;2024-01-06T09:37:49;15.95;;;10.88;;
22064;SDS011;11197;53.110;8.468;2024-01-06T09:40:18;14.85;;;10.43;;
22064;SDS011;11197;53.110;8.468;2024-01-06T09:42:49;17.90;;;11.23;;
22064;SDS011;11197;53.110;8.468;2024-01-06T09:45:16;16.23;;;11.15;;
22064;SDS011;11197;53.110;8.468;2024-01-06T09:47:42;15.75;;;11.13;;
22064;SDS011;11197;53.110;8.468;2024-01-06T09:50:14;16.02;;;10.70;;
22064;SDS011;11197;53.110;8.468;2024-01-06T09:52:45;17.15;;;11.77;;
22064;SDS011;11197;53.110;8.468;2024-01-06T09:55:17;18.25;;;11.82;;
22064;SDS011;11197;53.110;8.468;2024-01-06T09:57:48;16.75;;;11.13;;
22064;SDS011;11197;53.110;8.468;2024-01-06T10:00:14;16.35;;;10.75;;
22064;SDS011;11197;53.110;8.468;2024-01-06T10:02:41;15.93;;;10.90;;
22064;SDS011;11197;53.110;8.468;2024-01-06T10:05:08;17.00;;;11.02;;
22064;SDS011;11197;53.110;8.468;2024-01-06T10:07:35;16.23;;;11.07;;
22064;SDS011;11197;53.110;8.468;2024-01-06T10:10:00;16.00;;;11.13;;
22064;SDS011;11197;53.110;8.468;2024-01-06T10:12:27;15.80;;;11.32;;
22064;SDS011;11197;53.110;8.468;2024-01-06T10:14:53;17.13;;;11.50;;
22064;SDS011;11197;53.110;8.468;2024-01-06T10:17:19;17.27;;;11.02;;
22064;SDS011;11197;53.110;8.468;2024-01-06T10:19:45;17.08;;;11.38;;
22064;SDS011;11197;53.110;8.468;2024-01-06T10:22:13;16.30;;;11.45;;
22064;SDS011;11197;53.110;8.468;2024-01-06T10:24:39;17.60;;;11.60;;
22064;SDS011;11197;53.110;8.468;2024-01-06T10:27:05;17.05;;;11.35;;
22064;SDS011;11197;53.110;8.468;2024-01-06T10:29:34;16.60;;;11.00;;
22064;SDS011;11197;53.110;8.468;2024-01-06T10:32:00;19.55;;;11.93;;
22064;SDS011;11197;53.110;8.468;2024-01-06T10:34:26;19.27;;;11.35;;
22064;SDS011;11197;53.110;8.468;2024-01-06T10:36:52;17.55;;;11.55;;
22064;SDS011;11197;53.110;8.468;2024-01-06T10:39:22;15.77;;;9.63;;
22064;SDS011;11197;53.110;8.468;2024-01-06T10:41:49;19.23;;;12.20;;
22064;SDS011;11197;53.110;8.468;2024-01-06T10:44:16;17.40;;;11.88;;
22064;SDS011;11197;53.110;8.468;2024-01-06T10:46:43;18.90;;;12.55;;
22064;SDS011;11197;53.110;8.468;2024-01-06T10:49:10;17.15;;;11.57;;
22064;SDS011;11197;53.110;8.468;2024-01-06T10:51:37;17.58;;;11.35;;
22064;SDS011;11197;53.110;8.468;2024-01-06T10:54:04;18.88;;;12.45;;
22064;SDS011;11197;53.110;8.468;2024-01-06T10:56:31;19.98;;;12.85;;
22064;SDS011;11197;53.110;8.468;2024-01-06T10:59:03;19.25;;;12.38;;
22064;SDS011;11197;53.110;8.468;2024-01-06T11:01:30;20.70;;;13.60;;
22064;SDS011;11197;53.110;8.468;2024-01-06T11:03:58;19.05;;;12.93;;
22064;SDS011;11197;53.110;8.468;2024-01-06T11:06:25;20.63;;;13.38;;
22064;SDS011;11197;53.110;8.468;2024-01-06T11:11:32;18.15;;;12.73;;
22064;SDS011;11197;53.110;8.468;2024-01-06T11:14:19;21.83;;;13.23;;
22064;SDS011;11197;53.110;8.468;2024-01-06T11:16:47;18.45;;;12.60;;
22064;SDS011;11197;53.110;8.468;2024-01-06T11:22:20;20.88;;;13.30;;
22064;SDS011;11197;53.110;8.468;2024-01-06T11:24:48;20.05;;;13.18;;
22064;SDS011;11197;53.110;8.468;2024-01-06T11:27:22;21.45;;;13.07;;
22064;SDS011;11197;53.110;8.468;2024-01-06T11:29:51;23.08;;;13.48;;
22064;SDS011;11197;53.110;8.468;2024-01-06T11:32:25;21.05;;;13.52;;
22064;SDS011;11197;53.110;8.468;2024-01-06T11:34:55;23.73;;;13.80;;
22064;SDS011;11197;53.110;8.468;2024-01-06T11:42:41;21.33;;;13.55;;
22064;SDS011;11197;53.110;8.468;2024-01-06T11:45:07;22.15;;;13.77;;
22064;SDS011;11197;53.110;8.468;2024-01-06T11:47:34;19.65;;;12.65;;
22064;SDS011;11197;53.110;8.468;2024-01-06T11:50:00;21.73;;;13.93;;
22064;SDS011;11197;53.110;8.468;2024-01-06T11:52:31;22.02;;;13.43;;
22064;SDS011;11197;53.110;8.468;2024-01-06T11:54:57;20.92;;;13.55;;
22064;SDS011;11197;53.110;8.468;2024-01-06T11:57:27;21.48;;;13.15;;
22064;SDS011;11197;53.110;8.468;2024-01-06T11:59:53;22.00;;;13.57;;
22064;SDS011;11197;53.110;8.468;2024-01-06T12:02:19;21.40;;;13.45;;
22064;SDS011;11197;53.110;8.468;2024-01-06T12:04:48;22.67;;;13.63;;
22064;SDS011;11197;53.110;8.468;2024-01-06T12:07:16;20.80;;;13.35;;
22064;SDS011;11197;53.110;8.468;2024-01-06T12:09:42;21.77;;;13.43;;
22064;SDS011;11197;53.110;8.468;2024-01-06T12:12:08;19.02;;;12.30;;
22064;SDS011;11197;53.110;8.468;2024-01-06T12:14:36;22.90;;;13.82;;
22064;SDS011;11197;53.110;8.468;2024-01-06T12:17:01;22.67;;;14.27;;
22064;SDS011;11197;53.110;8.468;2024-01-06T12:19:30;23.35;;;14.13;;
22064;SDS011;11197;53.110;8.468;2024-01-06T12:21:56;20.35;;;12.07;;
22064;SDS011;11197;53.110;8.468;2024-01-06T12:24:23;20.88;;;12.95;;
22064;SDS011;11197;53.110;8.468;2024-01-06T12:26:49;20.48;;;12.60;;
22064;SDS011;11197;53.110;8.468;2024-01-06T12:29:16;20.98;;;12.43;;
22064;SDS011;11197;53.110;8.468;2024-01-06T12:31:43;20.27;;;13.40;;
22064;SDS011;11197;53.110;8.468;2024-01-06T12:34:09;23.40;;;13.13;;
22064;SDS011;11197;53.110;8.468;2024-01-06T12:36:37;21.23;;;12.88;;
22064;SDS011;11197;53.110;8.468;2024-01-06T12:39:04;22.55;;;13.68;;
22064;SDS011;11197;53.110;8.468;2024-01-06T12:41:35;20.37;;;13.03;;
22064;SDS011;11197;53.110;8.468;2024-01-06T12:44:02;19.80;;;13.25;;
22064;SDS011;11197;53.110;8.468;2024-01-06T12:46:28;20.75;;;12.40;;
22064;SDS011;11197;53.110;8.468;2024-01-06T12:48:54;22.17;;;13.20;;
22064;SDS011;11197;53.110;8.468;2024-01-06T12:51:20;19.90;;;12.52;;
22064;SDS011;11197;53.110;8.468;2024-01-06T12:53:46;22.55;;;13.13;;
22064;SDS011;11197;53.110;8.468;2024-01-06T12:56:12;19.35;;;12.55;;
22064;SDS011;11197;53.110;8.468;2024-01-06T12:58:40;22.65;;;13.18;;
22064;SDS011;11197;53.110;8.468;2024-01-06T13:01:06;22.10;;;12.68;;
22064;SDS011;11197;53.110;8.468;2024-01-06T13:03:32;20.75;;;13.05;;
22064;SDS011;11197;53.110;8.468;2024-01-06T13:05:59;20.33;;;12.63;;
22064;SDS011;11197;53.110;8.468;2024-01-06T13:08:25;17.50;;;11.20;;
22064;SDS011;11197;53.110;8.468;2024-01-06T13:10:52;21.02;;;11.98;;
22064;SDS011;11197;53.110;8.468;2024-01-06T13:13:19;18.55;;;11.45;;
22064;SDS011;11197;53.110;8.468;2024-01-06T13:15:44;18.55;;;11.35;;
22064;SDS011;11197;53.110;8.468;2024-01-06T13:18:11;18.80;;;11.88;;
22064;SDS011;11197;53.110;8.468;2024-01-06T13:20:38;17.83;;;11.27;;
22064;SDS011;11197;53.110;8.468;2024-01-06T13:23:06;17.10;;;11.10;;
22064;SDS011;11197;53.110;8.468;2024-01-06T13:25:32;19.23;;;11.65;;
22064;SDS011;11197;53.110;8.468;2024-01-06T13:27:58;18.10;;;11.40;;
22064;SDS011;11197;53.110;8.468;2024-01-06T13:30:25;17.08;;;10.68;;
22064;SDS011;11197;53.110;8.468;2024-01-06T13:32:51;17.85;;;11.23;;
22064;SDS011;11197;53.110;8.468;2024-01-06T13:35:19;16.75;;;10.98;;
22064;SDS011;11197;53.110;8.468;2024-01-06T13:37:46;18.45;;;11.05;;
22064;SDS011;11197;53.110;8.468;2024-01-06T13:40:13;17.33;;;11.10;;
22064;SDS011;11197;53.110;8.468;2024-01-06T13:42:39;17.50;;;11.18;;
22064;SDS011;11197;53.110;8.468;2024-01-06T13:45:06;19.80;;;11.70;;
22064;SDS011;11197;53.110;8.468;2024-01-06T13:47:32;18.27;;;11.30;;
22064;SDS011;11197;53.110;8.468;2024-01-06T13:49:58;17.83;;;11.07;;
22064;SDS011;11197;53.110;8.468;2024-01-06T13:52:24;18.23;;;11.40;;
22064;SDS011;11197;53.110;8.468;2024-01-06T13:54:50;18.13;;;11.30;;
22064;SDS011;11197;53.110;8.468;2024-01-06T13:57:16;17.67;;;11.27;;
22064;SDS011;11197;53.110;8.468;2024-01-06T13:59:42;17.80;;;11.70;;
22064;SDS011;11197;53.110;8.468;2024-01-06T14:02:08;21.38;;;12.27;;
22064;SDS011;11197;53.110;8.468;2024-01-06T14:04:34;19.65;;;12.80;;
22064;SDS011;11197;53.110;8.468;2024-01-06T14:07:01;18.95;;;12.13;;
22064;SDS011;11197;53.110;8.468;2024-01-06T14:09:27;22.92;;;12.68;;
22064;SDS011;11197;53.110;8.468;2024-01-06T14:11:53;22.15;;;12.90;;
22064;SDS011;11197;53.110;8.468;2024-01-06T14:14:22;19.75;;;12.40;;
22064;SDS011;11197;53.110;8.468;2024-01-06T14:16:48;19.88;;;12.10;;
22064;SDS011;11197;53.110;8.468;2024-01-06T14:19:14;20.33;;;12.18;;
22064;SDS011;11197;53.110;8.468;2024-01-06T14:21:40;22.08;;;13.10;;
22064;SDS011;11197;53.110;8.468;2024-01-06T14:24:06;21.70;;;13.00;;
22064;SDS011;11197;53.110;8.468;2024-01-06T14:26:32;19.65;;;12.32;;
22064;SDS011;11197;53.110;8.468;2024-01-06T14:28:58;20.15;;;12.70;;
22064;SDS011;11197;53.110;8.468;2024-01-06T14:31:24;20.42;;;12.68;;
22064;SDS011;11197;53.110;8.468;2024-01-06T14:33:53;18.88;;;11.68;;
22064;SDS011;11197;53.110;8.468;2024-01-06T14:37:01;18.83;;;11.15;;
22064;SDS011;11197;53.110;8.468;2024-01-06T14:39:27;19.67;;;11.68;;
22064;SDS011;11197;53.110;8.468;2024-01-06T14:41:53;19.42;;;11.65;;
22064;SDS011;11197;53.110;8.468;2024-01-06T14:44:18;18.70;;;11.60;;